sensor_id;sensor_type;location;lat;lon;timestamp;P1;durP1;ratioP1;P2;durP2;ratioP2
1414;SDS011;702;49.466;11.086;2023-08-06T00:01:57;5.67;;;5.17;;
1414;SDS011;702;49.466;11.086;2023-08-06T00:04:24;5.80;;;4.90;;
1414;SDS011;702;49.466;11.086;2023-08-06T00:06:51;3.97;;;3.67;;
1414;SDS011;702;49.466;11.086;2023-08-06T00:09:18;4.90;;;4.50;;
1414;SDS011;702;49.466;11.086;2023-08-06T00:11:46;4.83;;;4.43;;
1414;SDS011;702;49.466;11.086;2023-08-06T00:14:13;4.60;;;4.20;;
1414;SDS011;702;49.466;11.086;2023-08-06T00:16:43;4.90;;;4.50;;
1414;SDS011;702;49.466;11.086;2023-08-06T00:19:12;4.90;;;4.50;;
1414;SDS011;702;49.466;11.086;2023-08-06T00:21:39;5.17;;;4.77;;
1414;SDS011;702;49.466;11.086;2023-08-06T00:24:06;5.00;;;4.50;;
1414;SDS011;702;49.466;11.086;2023-08-06T00:26:34;4.90;;;4.50;;
1414;SDS011;702;49.466;11.086;2023-08-06T00:29:01;5.67;;;5.17;;
1414;SDS011;702;49.466;11.086;2023-08-06T00:31:28;5.43;;;4.37;;
1414;SDS011;702;49.466;11.086;2023-08-06T00:33:56;4.80;;;4.33;;
1414;SDS011;702;49.466;11.086;2023-08-06T00:36:24;5.13;;;4.67;;
1414;SDS011;702;49.466;11.086;2023-08-06T00:38:53;6.03;;;5.43;;
1414;SDS011;702;49.466;11.086;2023-08-06T00:41:21;5.20;;;3.87;;
1414;SDS011;702;49.466;11.086;2023-08-06T00:43:48;4.73;;;4.33;;
1414;SDS011;702;49.466;11.086;2023-08-06T00:46:15;5.07;;;4.57;;
1414;SDS011;702;49.466;11.086;2023-08-06T00:48:43;5.37;;;4.93;;
1414;SDS011;702;49.466;11.086;2023-08-06T00:51:11;7.17;;;5.20;;
1414;SDS011;702;49.466;11.086;2023-08-06T00:53:39;5.50;;;5.00;;
1414;SDS011;702;49.466;11.086;2023-08-06T00:56:07;5.73;;;5.23;;
1414;SDS011;702;49.466;11.086;2023-08-06T00:58:35;5.13;;;4.73;;
1414;SDS011;702;49.466;11.086;2023-08-06T01:01:04;6.13;;;5.60;;
1414;SDS011;702;49.466;11.086;2023-08-06T01:03:31;5.73;;;5.13;;
1414;SDS011;702;49.466;11.086;2023-08-06T01:05:59;5.53;;;4.93;;
1414;SDS011;702;49.466;11.086;2023-08-06T01:08:30;5.87;;;5.37;;
1414;SDS011;702;49.466;11.086;2023-08-06T01:11:23;5.97;;;5.47;;
1414;SDS011;702;49.466;11.086;2023-08-06T01:14:23;6.07;;;5.57;;
1414;SDS011;702;49.466;11.086;2023-08-06T01:16:57;5.03;;;4.53;;
1414;SDS011;702;49.466;11.086;2023-08-06T01:19:25;7.00;;;5.33;;
1414;SDS011;702;49.466;11.086;2023-08-06T01:21:54;6.37;;;5.47;;
1414;SDS011;702;49.466;11.086;2023-08-06T01:24:22;5.47;;;4.97;;
1414;SDS011;702;49.466;11.086;2023-08-06T01:26:51;6.50;;;5.30;;
1414;SDS011;702;49.466;11.086;2023-08-06T01:29:28;5.37;;;4.93;;
1414;SDS011;702;49.466;11.086;2023-08-06T01:32:02;6.07;;;5.57;;
1414;SDS011;702;49.466;11.086;2023-08-06T01:34:32;6.57;;;5.20;;
1414;SDS011;702;49.466;11.086;2023-08-06T01:37:02;5.50;;;4.97;;
1414;SDS011;702;49.466;11.086;2023-08-06T01:39:32;5.60;;;5.17;;
1414;SDS011;702;49.466;11.086;2023-08-06T01:42:00;5.63;;;5.10;;
1414;SDS011;702;49.466;11.086;2023-08-06T01:44:27;4.80;;;4.30;;
1414;SDS011;702;49.466;11.086;2023-08-06T01:46:55;4.60;;;4.00;;
1414;SDS011;702;49.466;11.086;2023-08-06T01:49:22;4.70;;;3.53;;
1414;SDS011;702;49.466;11.086;2023-08-06T01:51:50;4.40;;;4.00;;
1414;SDS011;702;49.466;11.086;2023-08-06T01:54:18;4.63;;;4.23;;
1414;SDS011;702;49.466;11.086;2023-08-06T01:56:48;4.87;;;4.47;;
1414;SDS011;702;49.466;11.086;2023-08-06T01:59:15;4.60;;;4.20;;
1414;SDS011;702;49.466;11.086;2023-08-06T02:01:43;4.50;;;4.20;;
1414;SDS011;702;49.466;11.086;2023-08-06T02:04:10;4.80;;;3.70;;
1414;SDS011;702;49.466;11.086;2023-08-06T02:06:37;4.10;;;3.80;;
1414;SDS011;702;49.466;11.086;2023-08-06T02:09:06;4.57;;;3.83;;
1414;SDS011;702;49.466;11.086;2023-08-06T02:11:35;4.03;;;3.70;;
1414;SDS011;702;49.466;11.086;2023-08-06T02:14:02;3.10;;;2.90;;
1414;SDS011;702;49.466;11.086;2023-08-06T02:16:30;3.90;;;3.60;;
1414;SDS011;702;49.466;11.086;2023-08-06T02:18:57;3.67;;;3.37;;
1414;SDS011;702;49.466;11.086;2023-08-06T02:21:25;4.83;;;4.37;;
1414;SDS011;702;49.466;11.086;2023-08-06T02:23:52;3.43;;;3.13;;
1414;SDS011;702;49.466;11.086;2023-08-06T02:26:19;3.73;;;3.43;;
1414;SDS011;702;49.466;11.086;2023-08-06T02:28:48;4.50;;;3.20;;
1414;SDS011;702;49.466;11.086;2023-08-06T02:31:16;3.83;;;3.53;;
1414;SDS011;702;49.466;11.086;2023-08-06T02:33:43;4.07;;;3.10;;
1414;SDS011;702;49.466;11.086;2023-08-06T02:36:10;3.30;;;3.07;;
1414;SDS011;702;49.466;11.086;2023-08-06T02:38:38;4.40;;;3.30;;
1414;SDS011;702;49.466;11.086;2023-08-06T02:41:05;3.40;;;3.10;;
1414;SDS011;702;49.466;11.086;2023-08-06T02:43:34;3.30;;;2.77;;
1414;SDS011;702;49.466;11.086;2023-08-06T02:46:02;2.90;;;2.70;;
1414;SDS011;702;49.466;11.086;2023-08-06T02:48:31;4.37;;;3.03;;
1414;SDS011;702;49.466;11.086;2023-08-06T02:50:58;3.80;;;3.40;;
1414;SDS011;702;49.466;11.086;2023-08-06T02:53:26;3.53;;;3.20;;
1414;SDS011;702;49.466;11.086;2023-08-06T02:55:54;3.27;;;2.90;;
1414;SDS011;702;49.466;11.086;2023-08-06T02:58:22;4.40;;;3.00;;
1414;SDS011;702;49.466;11.086;2023-08-06T03:00:58;3.50;;;3.20;;
1414;SDS011;702;49.466;11.086;2023-08-06T03:03:30;3.33;;;3.03;;
1414;SDS011;702;49.466;11.086;2023-08-06T03:05:57;3.30;;;3.00;;
1414;SDS011;702;49.466;11.086;2023-08-06T03:08:25;3.33;;;3.03;;
1414;SDS011;702;49.466;11.086;2023-08-06T03:10:52;4.90;;;2.80;;
1414;SDS011;702;49.466;11.086;2023-08-06T03:13:19;5.73;;;3.47;;
1414;SDS011;702;49.466;11.086;2023-08-06T03:15:53;4.80;;;3.17;;
1414;SDS011;702;49.466;11.086;2023-08-06T03:18:23;3.30;;;3.00;;
1414;SDS011;702;49.466;11.086;2023-08-06T03:20:53;4.33;;;3.60;;
1414;SDS011;702;49.466;11.086;2023-08-06T03:23:20;3.57;;;3.30;;
1414;SDS011;702;49.466;11.086;2023-08-06T03:25:48;3.60;;;3.30;;
1414;SDS011;702;49.466;11.086;2023-08-06T03:28:15;3.80;;;3.40;;
1414;SDS011;702;49.466;11.086;2023-08-06T03:30:42;4.47;;;2.73;;
1414;SDS011;702;49.466;11.086;2023-08-06T03:33:10;3.40;;;2.77;;
1414;SDS011;702;49.466;11.086;2023-08-06T03:35:37;3.60;;;3.30;;
1414;SDS011;702;49.466;11.086;2023-08-06T03:38:06;5.57;;;3.70;;
1414;SDS011;702;49.466;11.086;2023-08-06T03:40:34;4.17;;;3.40;;
1414;SDS011;702;49.466;11.086;2023-08-06T03:43:02;4.33;;;3.93;;
1414;SDS011;702;49.466;11.086;2023-08-06T03:45:29;5.60;;;3.77;;
1414;SDS011;702;49.466;11.086;2023-08-06T03:47:57;4.50;;;4.10;;
1414;SDS011;702;49.466;11.086;2023-08-06T03:50:24;4.90;;;4.50;;
1414;SDS011;702;49.466;11.086;2023-08-06T03:52:51;6.00;;;4.77;;
1414;SDS011;702;49.466;11.086;2023-08-06T03:55:21;4.87;;;4.47;;
1414;SDS011;702;49.466;11.086;2023-08-06T03:57:48;5.63;;;5.13;;
1414;SDS011;702;49.466;11.086;2023-08-06T04:00:16;4.67;;;4.27;;
1414;SDS011;702;49.466;11.086;2023-08-06T04:02:43;5.30;;;4.80;;
1414;SDS011;702;49.466;11.086;2023-08-06T04:05:14;6.10;;;4.97;;
1414;SDS011;702;49.466;11.086;2023-08-06T04:07:42;5.30;;;4.73;;
1414;SDS011;702;49.466;11.086;2023-08-06T04:10:09;4.93;;;4.53;;
1414;SDS011;702;49.466;11.086;2023-08-06T04:12:38;3.63;;;3.33;;
1414;SDS011;702;49.466;11.086;2023-08-06T04:15:06;3.77;;;3.47;;
1414;SDS011;702;49.466;11.086;2023-08-06T04:17:35;3.97;;;3.57;;
1414;SDS011;702;49.466;11.086;2023-08-06T04:20:03;3.63;;;3.33;;
1414;SDS011;702;49.466;11.086;2023-08-06T04:22:31;4.10;;;3.70;;
1414;SDS011;702;49.466;11.086;2023-08-06T04:24:59;3.53;;;3.23;;
1414;SDS011;702;49.466;11.086;2023-08-06T04:27:27;3.27;;;3.00;;
1414;SDS011;702;49.466;11.086;2023-08-06T04:29:56;4.13;;;3.23;;
1414;SDS011;702;49.466;11.086;2023-08-06T04:32:23;3.37;;;3.17;;
1414;SDS011;702;49.466;11.086;2023-08-06T04:34:51;3.43;;;3.13;;
1414;SDS011;702;49.466;11.086;2023-08-06T04:37:18;4.07;;;3.37;;
1414;SDS011;702;49.466;11.086;2023-08-06T04:39:45;4.13;;;3.50;;
1414;SDS011;702;49.466;11.086;2023-08-06T04:42:13;4.07;;;3.10;;
1414;SDS011;702;49.466;11.086;2023-08-06T04:44:41;3.90;;;3.60;;
1414;SDS011;702;49.466;11.086;2023-08-06T04:47:10;3.37;;;3.07;;
1414;SDS011;702;49.466;11.086;2023-08-06T04:49:38;3.30;;;3.00;;
1414;SDS011;702;49.466;11.086;2023-08-06T04:52:05;3.53;;;3.23;;
1414;SDS011;702;49.466;11.086;2023-08-06T04:54:33;5.33;;;2.77;;
1414;SDS011;702;49.466;11.086;2023-08-06T04:57:00;3.20;;;3.00;;
1414;SDS011;702;49.466;11.086;2023-08-06T04:59:27;3.60;;;3.30;;
1414;SDS011;702;49.466;11.086;2023-08-06T05:01:55;3.40;;;2.90;;
1414;SDS011;702;49.466;11.086;2023-08-06T05:04:24;3.20;;;3.00;;
1414;SDS011;702;49.466;11.086;2023-08-06T05:06:51;5.03;;;3.70;;
1414;SDS011;702;49.466;11.086;2023-08-06T05:09:19;2.80;;;2.60;;
1414;SDS011;702;49.466;11.086;2023-08-06T05:11:46;3.97;;;3.60;;
1414;SDS011;702;49.466;11.086;2023-08-06T05:14:14;6.80;;;3.80;;
1414;SDS011;702;49.466;11.086;2023-08-06T05:16:41;3.90;;;3.50;;
1414;SDS011;702;49.466;11.086;2023-08-06T05:19:09;4.43;;;3.07;;
1414;SDS011;702;49.466;11.086;2023-08-06T05:21:37;2.83;;;2.63;;
1414;SDS011;702;49.466;11.086;2023-08-06T05:24:05;5.90;;;2.97;;
1414;SDS011;702;49.466;11.086;2023-08-06T05:26:32;2.67;;;2.47;;
1414;SDS011;702;49.466;11.086;2023-08-06T05:29:00;3.33;;;2.87;;
1414;SDS011;702;49.466;11.086;2023-08-06T05:31:27;5.00;;;3.37;;
1414;SDS011;702;49.466;11.086;2023-08-06T05:33:55;6.93;;;2.80;;
1414;SDS011;702;49.466;11.086;2023-08-06T05:36:23;4.03;;;2.93;;
1414;SDS011;702;49.466;11.086;2023-08-06T05:38:52;4.00;;;3.07;;
1414;SDS011;702;49.466;11.086;2023-08-06T05:41:19;5.63;;;2.57;;
1414;SDS011;702;49.466;11.086;2023-08-06T05:43:46;3.20;;;2.90;;
1414;SDS011;702;49.466;11.086;2023-08-06T05:46:14;3.53;;;3.23;;
1414;SDS011;702;49.466;11.086;2023-08-06T05:48:41;3.77;;;3.10;;
1414;SDS011;702;49.466;11.086;2023-08-06T05:51:08;4.40;;;3.50;;
1414;SDS011;702;49.466;11.086;2023-08-06T05:53:38;3.37;;;2.80;;
1414;SDS011;702;49.466;11.086;2023-08-06T05:56:06;3.13;;;2.93;;
1414;SDS011;702;49.466;11.086;2023-08-06T05:58:34;2.97;;;2.77;;
1414;SDS011;702;49.466;11.086;2023-08-06T06:01:01;3.70;;;3.40;;
1414;SDS011;702;49.466;11.086;2023-08-06T06:03:30;3.57;;;3.27;;
1414;SDS011;702;49.466;11.086;2023-08-06T06:05:59;3.73;;;3.43;;
1414;SDS011;702;49.466;11.086;2023-08-06T06:08:28;3.10;;;2.90;;
1414;SDS011;702;49.466;11.086;2023-08-06T06:10:56;3.53;;;3.23;;
1414;SDS011;702;49.466;11.086;2023-08-06T06:13:24;3.50;;;3.20;;
1414;SDS011;702;49.466;11.086;2023-08-06T06:15:53;3.10;;;2.50;;
1414;SDS011;702;49.466;11.086;2023-08-06T06:18:21;3.90;;;3.30;;
1414;SDS011;702;49.466;11.086;2023-08-06T06:20:48;4.27;;;3.00;;
1414;SDS011;702;49.466;11.086;2023-08-06T06:23:16;3.83;;;3.53;;
1414;SDS011;702;49.466;11.086;2023-08-06T06:25:43;3.07;;;2.87;;
1414;SDS011;702;49.466;11.086;2023-08-06T06:28:14;4.23;;;2.60;;
1414;SDS011;702;49.466;11.086;2023-08-06T06:30:42;3.70;;;3.20;;
1414;SDS011;702;49.466;11.086;2023-08-06T06:33:10;4.90;;;3.23;;
1414;SDS011;702;49.466;11.086;2023-08-06T06:35:37;3.10;;;2.90;;
1414;SDS011;702;49.466;11.086;2023-08-06T06:38:04;3.27;;;2.97;;
1414;SDS011;702;49.466;11.086;2023-08-06T06:40:32;2.70;;;2.50;;
1414;SDS011;702;49.466;11.086;2023-08-06T06:42:59;3.87;;;2.70;;
1414;SDS011;702;49.466;11.086;2023-08-06T06:45:26;3.73;;;3.43;;
1414;SDS011;702;49.466;11.086;2023-08-06T06:47:55;5.27;;;4.00;;
1414;SDS011;702;49.466;11.086;2023-08-06T06:50:22;3.30;;;3.10;;
1414;SDS011;702;49.466;11.086;2023-08-06T06:52:49;3.40;;;3.10;;
1414;SDS011;702;49.466;11.086;2023-08-06T06:55:17;3.33;;;3.03;;
1414;SDS011;702;49.466;11.086;2023-08-06T06:57:44;3.73;;;3.43;;
1414;SDS011;702;49.466;11.086;2023-08-06T07:00:12;7.87;;;3.60;;
1414;SDS011;702;49.466;11.086;2023-08-06T07:02:40;3.63;;;3.33;;
1414;SDS011;702;49.466;11.086;2023-08-06T07:05:09;3.83;;;3.53;;
1414;SDS011;702;49.466;11.086;2023-08-06T07:07:36;3.23;;;3.00;;
1414;SDS011;702;49.466;11.086;2023-08-06T07:10:04;3.97;;;3.57;;
1414;SDS011;702;49.466;11.086;2023-08-06T07:12:32;3.87;;;3.57;;
1414;SDS011;702;49.466;11.086;2023-08-06T07:15:01;4.93;;;2.93;;
1414;SDS011;702;49.466;11.086;2023-08-06T07:17:28;3.40;;;3.10;;
1414;SDS011;702;49.466;11.086;2023-08-06T07:19:56;3.60;;;3.30;;
1414;SDS011;702;49.466;11.086;2023-08-06T07:22:26;5.70;;;3.13;;
1414;SDS011;702;49.466;11.086;2023-08-06T07:24:53;3.47;;;3.20;;
1414;SDS011;702;49.466;11.086;2023-08-06T07:27:20;3.07;;;2.77;;
1414;SDS011;702;49.466;11.086;2023-08-06T07:29:48;4.10;;;3.70;;
1414;SDS011;702;49.466;11.086;2023-08-06T07:32:15;3.30;;;2.90;;
1414;SDS011;702;49.466;11.086;2023-08-06T07:34:43;3.20;;;2.90;;
1414;SDS011;702;49.466;11.086;2023-08-06T07:37:10;3.63;;;3.37;;
1414;SDS011;702;49.466;11.086;2023-08-06T07:39:41;4.07;;;3.77;;
1414;SDS011;702;49.466;11.086;2023-08-06T07:42:10;4.27;;;3.00;;
1414;SDS011;702;49.466;11.086;2023-08-06T07:44:39;3.10;;;2.83;;
1414;SDS011;702;49.466;11.086;2023-08-06T07:47:07;3.33;;;2.93;;
1414;SDS011;702;49.466;11.086;2023-08-06T07:49:36;2.90;;;2.70;;
1414;SDS011;702;49.466;11.086;2023-08-06T07:52:05;2.47;;;2.27;;
1414;SDS011;702;49.466;11.086;2023-08-06T07:54:38;2.73;;;2.53;;
1414;SDS011;702;49.466;11.086;2023-08-06T07:57:07;2.37;;;2.17;;
1414;SDS011;702;49.466;11.086;2023-08-06T07:59:34;3.00;;;2.10;;
1414;SDS011;702;49.466;11.086;2023-08-06T08:02:02;2.93;;;1.83;;
1414;SDS011;702;49.466;11.086;2023-08-06T08:04:29;2.33;;;1.90;;
1414;SDS011;702;49.466;11.086;2023-08-06T08:06:56;1.80;;;1.70;;
1414;SDS011;702;49.466;11.086;2023-08-06T08:09:24;2.33;;;2.00;;
1414;SDS011;702;49.466;11.086;2023-08-06T08:11:51;2.60;;;2.10;;
1414;SDS011;702;49.466;11.086;2023-08-06T08:14:20;1.70;;;1.60;;
1414;SDS011;702;49.466;11.086;2023-08-06T08:16:47;3.00;;;1.53;;
1414;SDS011;702;49.466;11.086;2023-08-06T08:19:14;2.23;;;2.03;;
1414;SDS011;702;49.466;11.086;2023-08-06T08:21:42;1.83;;;1.73;;
1414;SDS011;702;49.466;11.086;2023-08-06T08:24:09;3.27;;;1.80;;
1414;SDS011;702;49.466;11.086;2023-08-06T08:26:36;1.70;;;1.60;;
1414;SDS011;702;49.466;11.086;2023-08-06T08:29:03;0.90;;;0.83;;
1414;SDS011;702;49.466;11.086;2023-08-06T08:31:32;1.50;;;1.20;;
1414;SDS011;702;49.466;11.086;2023-08-06T08:34:04;1.90;;;1.03;;
1414;SDS011;702;49.466;11.086;2023-08-06T08:36:31;1.47;;;0.60;;
1414;SDS011;702;49.466;11.086;2023-08-06T08:38:59;2.30;;;0.97;;
1414;SDS011;702;49.466;11.086;2023-08-06T08:41:27;1.07;;;0.80;;
1414;SDS011;702;49.466;11.086;2023-08-06T08:43:56;1.00;;;0.70;;
1414;SDS011;702;49.466;11.086;2023-08-06T08:46:26;0.93;;;0.80;;
1414;SDS011;702;49.466;11.086;2023-08-06T08:48:57;0.70;;;0.60;;
1414;SDS011;702;49.466;11.086;2023-08-06T08:51:26;0.50;;;0.30;;
1414;SDS011;702;49.466;11.086;2023-08-06T08:53:54;1.73;;;0.40;;
1414;SDS011;702;49.466;11.086;2023-08-06T08:56:23;0.77;;;0.40;;
1414;SDS011;702;49.466;11.086;2023-08-06T08:58:51;1.40;;;0.57;;
1414;SDS011;702;49.466;11.086;2023-08-06T09:01:20;0.60;;;0.40;;
1414;SDS011;702;49.466;11.086;2023-08-06T09:03:48;0.70;;;0.60;;
1414;SDS011;702;49.466;11.086;2023-08-06T09:06:24;0.73;;;0.40;;
1414;SDS011;702;49.466;11.086;2023-08-06T09:08:54;0.77;;;0.40;;
1414;SDS011;702;49.466;11.086;2023-08-06T09:11:35;0.50;;;0.50;;
1414;SDS011;702;49.466;11.086;2023-08-06T09:14:10;1.17;;;0.50;;
1414;SDS011;702;49.466;11.086;2023-08-06T09:16:38;0.50;;;0.40;;
1414;SDS011;702;49.466;11.086;2023-08-06T09:19:07;0.40;;;0.30;;
1414;SDS011;702;49.466;11.086;2023-08-06T09:21:39;0.40;;;0.30;;
1414;SDS011;702;49.466;11.086;2023-08-06T09:24:07;3.03;;;0.70;;
1414;SDS011;702;49.466;11.086;2023-08-06T09:26:36;0.70;;;0.30;;
1414;SDS011;702;49.466;11.086;2023-08-06T09:29:07;0.50;;;0.33;;
1414;SDS011;702;49.466;11.086;2023-08-06T09:31:40;0.70;;;0.60;;
1414;SDS011;702;49.466;11.086;2023-08-06T09:34:11;0.90;;;0.57;;
1414;SDS011;702;49.466;11.086;2023-08-06T09:36:43;0.70;;;0.60;;
1414;SDS011;702;49.466;11.086;2023-08-06T09:39:13;0.77;;;0.40;;
1414;SDS011;702;49.466;11.086;2023-08-06T09:41:42;1.07;;;0.30;;
1414;SDS011;702;49.466;11.086;2023-08-06T09:44:15;3.53;;;0.50;;
1414;SDS011;702;49.466;11.086;2023-08-06T09:46:47;0.70;;;0.60;;
1414;SDS011;702;49.466;11.086;2023-08-06T09:49:15;0.80;;;0.50;;
1414;SDS011;702;49.466;11.086;2023-08-06T09:51:46;0.80;;;0.60;;
1414;SDS011;702;49.466;11.086;2023-08-06T09:54:22;0.40;;;0.30;;
1414;SDS011;702;49.466;11.086;2023-08-06T09:56:53;1.13;;;0.40;;
1414;SDS011;702;49.466;11.086;2023-08-06T09:59:21;0.60;;;0.43;;
1414;SDS011;702;49.466;11.086;2023-08-06T10:01:54;0.50;;;0.43;;
1414;SDS011;702;49.466;11.086;2023-08-06T10:04:24;1.33;;;0.53;;
1414;SDS011;702;49.466;11.086;2023-08-06T10:06:53;0.70;;;0.50;;
1414;SDS011;702;49.466;11.086;2023-08-06T10:09:21;1.07;;;0.50;;
1414;SDS011;702;49.466;11.086;2023-08-06T10:11:50;1.13;;;0.40;;
1414;SDS011;702;49.466;11.086;2023-08-06T10:14:19;0.70;;;0.50;;
1414;SDS011;702;49.466;11.086;2023-08-06T10:16:51;0.50;;;0.40;;
1414;SDS011;702;49.466;11.086;2023-08-06T10:19:19;0.50;;;0.30;;
1414;SDS011;702;49.466;11.086;2023-08-06T10:24:51;0.90;;;0.43;;
1414;SDS011;702;49.466;11.086;2023-08-06T10:27:28;0.73;;;0.50;;
1414;SDS011;702;49.466;11.086;2023-08-06T10:32:53;0.50;;;0.30;;
1414;SDS011;702;49.466;11.086;2023-08-06T10:35:34;0.40;;;0.30;;
1414;SDS011;702;49.466;11.086;2023-08-06T10:38:11;0.67;;;0.37;;
1414;SDS011;702;49.466;11.086;2023-08-06T10:40:42;0.93;;;0.40;;
1414;SDS011;702;49.466;11.086;2023-08-06T10:43:25;0.60;;;0.30;;
1414;SDS011;702;49.466;11.086;2023-08-06T10:45:53;0.40;;;0.30;;
1414;SDS011;702;49.466;11.086;2023-08-06T10:48:28;0.40;;;0.30;;
1414;SDS011;702;49.466;11.086;2023-08-06T10:50:56;0.50;;;0.40;;
1414;SDS011;702;49.466;11.086;2023-08-06T10:53:27;0.40;;;0.30;;
1414;SDS011;702;49.466;11.086;2023-08-06T10:55:56;0.60;;;0.40;;
1414;SDS011;702;49.466;11.086;2023-08-06T10:58:24;1.17;;;0.30;;
1414;SDS011;702;49.466;11.086;2023-08-06T11:00:52;0.50;;;0.40;;
1414;SDS011;702;49.466;11.086;2023-08-06T11:03:19;0.53;;;0.40;;
1414;SDS011;702;49.466;11.086;2023-08-06T11:05:48;0.67;;;0.40;;
1414;SDS011;702;49.466;11.086;2023-08-06T11:08:22;0.40;;;0.30;;
1414;SDS011;702;49.466;11.086;2023-08-06T11:10:52;0.40;;;0.23;;
1414;SDS011;702;49.466;11.086;2023-08-06T11:13:21;0.50;;;0.30;;
1414;SDS011;702;49.466;11.086;2023-08-06T11:15:48;0.53;;;0.47;;
1414;SDS011;702;49.466;11.086;2023-08-06T11:18:17;0.50;;;0.30;;
1414;SDS011;702;49.466;11.086;2023-08-06T11:20:44;0.63;;;0.33;;
1414;SDS011;702;49.466;11.086;2023-08-06T11:23:12;0.40;;;0.30;;
1414;SDS011;702;49.466;11.086;2023-08-06T11:25:43;0.60;;;0.50;;
1414;SDS011;702;49.466;11.086;2023-08-06T11:28:13;0.97;;;0.57;;
1414;SDS011;702;49.466;11.086;2023-08-06T11:30:40;3.70;;;0.50;;
1414;SDS011;702;49.466;11.086;2023-08-06T11:33:07;1.67;;;0.40;;
1414;SDS011;702;49.466;11.086;2023-08-06T11:35:35;0.50;;;0.40;;
1414;SDS011;702;49.466;11.086;2023-08-06T11:38:05;0.50;;;0.40;;
1414;SDS011;702;49.466;11.086;2023-08-06T11:40:33;1.93;;;0.60;;
1414;SDS011;702;49.466;11.086;2023-08-06T11:43:02;0.73;;;0.47;;
1414;SDS011;702;49.466;11.086;2023-08-06T11:45:31;0.50;;;0.40;;
1414;SDS011;702;49.466;11.086;2023-08-06T11:48:01;0.40;;;0.40;;
1414;SDS011;702;49.466;11.086;2023-08-06T11:50:29;0.90;;;0.50;;
1414;SDS011;702;49.466;11.086;2023-08-06T11:52:59;0.77;;;0.53;;
1414;SDS011;702;49.466;11.086;2023-08-06T11:55:27;0.40;;;0.30;;
1414;SDS011;702;49.466;11.086;2023-08-06T11:57:56;0.70;;;0.40;;
1414;SDS011;702;49.466;11.086;2023-08-06T12:00:24;0.90;;;0.40;;
1414;SDS011;702;49.466;11.086;2023-08-06T12:02:53;0.60;;;0.47;;
1414;SDS011;702;49.466;11.086;2023-08-06T12:05:21;4.90;;;0.70;;
1414;SDS011;702;49.466;11.086;2023-08-06T12:07:49;0.40;;;0.30;;
1414;SDS011;702;49.466;11.086;2023-08-06T12:10:18;0.60;;;0.50;;
1414;SDS011;702;49.466;11.086;2023-08-06T12:12:47;0.83;;;0.40;;
1414;SDS011;702;49.466;11.086;2023-08-06T12:15:15;1.50;;;0.43;;
1414;SDS011;702;49.466;11.086;2023-08-06T12:17:43;0.80;;;0.43;;
1414;SDS011;702;49.466;11.086;2023-08-06T12:20:11;0.80;;;0.40;;
1414;SDS011;702;49.466;11.086;2023-08-06T12:22:39;1.60;;;0.33;;
1414;SDS011;702;49.466;11.086;2023-08-06T12:25:07;1.87;;;0.50;;
1414;SDS011;702;49.466;11.086;2023-08-06T12:27:38;0.80;;;0.73;;
1414;SDS011;702;49.466;11.086;2023-08-06T12:30:07;0.50;;;0.50;;
1414;SDS011;702;49.466;11.086;2023-08-06T12:32:35;0.60;;;0.40;;
1414;SDS011;702;49.466;11.086;2023-08-06T12:35:03;0.53;;;0.53;;
1414;SDS011;702;49.466;11.086;2023-08-06T12:37:33;0.70;;;0.60;;
1414;SDS011;702;49.466;11.086;2023-08-06T12:40:02;0.70;;;0.60;;
1414;SDS011;702;49.466;11.086;2023-08-06T12:42:30;0.83;;;0.80;;
1414;SDS011;702;49.466;11.086;2023-08-06T12:44:57;0.40;;;0.40;;
1414;SDS011;702;49.466;11.086;2023-08-06T12:47:25;1.70;;;0.47;;
1414;SDS011;702;49.466;11.086;2023-08-06T12:49:52;0.60;;;0.43;;
1414;SDS011;702;49.466;11.086;2023-08-06T12:52:20;0.50;;;0.43;;
1414;SDS011;702;49.466;11.086;2023-08-06T12:54:48;0.50;;;0.50;;
1414;SDS011;702;49.466;11.086;2023-08-06T12:57:15;0.40;;;0.30;;
1414;SDS011;702;49.466;11.086;2023-08-06T12:59:43;0.50;;;0.37;;
1414;SDS011;702;49.466;11.086;2023-08-06T13:02:10;0.60;;;0.40;;
1414;SDS011;702;49.466;11.086;2023-08-06T13:04:40;0.40;;;0.30;;
1414;SDS011;702;49.466;11.086;2023-08-06T13:07:08;0.40;;;0.33;;
1414;SDS011;702;49.466;11.086;2023-08-06T13:09:35;0.40;;;0.40;;
1414;SDS011;702;49.466;11.086;2023-08-06T13:12:04;0.40;;;0.30;;
1414;SDS011;702;49.466;11.086;2023-08-06T13:14:32;0.40;;;0.30;;
1414;SDS011;702;49.466;11.086;2023-08-06T13:17:00;1.70;;;0.37;;
1414;SDS011;702;49.466;11.086;2023-08-06T13:19:27;0.60;;;0.30;;
1414;SDS011;702;49.466;11.086;2023-08-06T13:21:58;0.50;;;0.40;;
1414;SDS011;702;49.466;11.086;2023-08-06T13:24:29;0.50;;;0.47;;
1414;SDS011;702;49.466;11.086;2023-08-06T13:26:56;0.50;;;0.40;;
1414;SDS011;702;49.466;11.086;2023-08-06T13:29:26;0.50;;;0.43;;
1414;SDS011;702;49.466;11.086;2023-08-06T13:31:53;0.50;;;0.40;;
1414;SDS011;702;49.466;11.086;2023-08-06T13:34:21;0.40;;;0.30;;
1414;SDS011;702;49.466;11.086;2023-08-06T13:36:48;0.40;;;0.30;;
1414;SDS011;702;49.466;11.086;2023-08-06T13:39:16;1.80;;;0.30;;
1414;SDS011;702;49.466;11.086;2023-08-06T13:41:45;0.40;;;0.30;;
1414;SDS011;702;49.466;11.086;2023-08-06T13:44:13;0.50;;;0.40;;
1414;SDS011;702;49.466;11.086;2023-08-06T13:46:42;0.60;;;0.40;;
1414;SDS011;702;49.466;11.086;2023-08-06T13:49:10;0.70;;;0.60;;
1414;SDS011;702;49.466;11.086;2023-08-06T13:51:38;0.50;;;0.40;;
1414;SDS011;702;49.466;11.086;2023-08-06T13:54:06;0.40;;;0.37;;
1414;SDS011;702;49.466;11.086;2023-08-06T13:56:45;0.50;;;0.40;;
1414;SDS011;702;49.466;11.086;2023-08-06T13:59:19;0.50;;;0.43;;
1414;SDS011;702;49.466;11.086;2023-08-06T14:01:54;0.40;;;0.33;;
1414;SDS011;702;49.466;11.086;2023-08-06T14:04:29;0.97;;;0.70;;
1414;SDS011;702;49.466;11.086;2023-08-06T14:07:01;0.50;;;0.50;;
1414;SDS011;702;49.466;11.086;2023-08-06T14:09:28;0.47;;;0.30;;
1414;SDS011;702;49.466;11.086;2023-08-06T14:12:02;0.40;;;0.30;;
1414;SDS011;702;49.466;11.086;2023-08-06T14:14:50;0.40;;;0.30;;
1414;SDS011;702;49.466;11.086;2023-08-06T14:17:20;0.57;;;0.30;;
1414;SDS011;702;49.466;11.086;2023-08-06T14:19:48;0.40;;;0.30;;
1414;SDS011;702;49.466;11.086;2023-08-06T14:22:18;1.70;;;0.40;;
1414;SDS011;702;49.466;11.086;2023-08-06T14:24:46;0.40;;;0.40;;
1414;SDS011;702;49.466;11.086;2023-08-06T14:27:15;0.40;;;0.33;;
1414;SDS011;702;49.466;11.086;2023-08-06T14:29:43;0.60;;;0.50;;
1414;SDS011;702;49.466;11.086;2023-08-06T14:32:17;0.40;;;0.30;;
1414;SDS011;702;49.466;11.086;2023-08-06T14:34:47;0.77;;;0.77;;
1414;SDS011;702;49.466;11.086;2023-08-06T14:37:15;0.50;;;0.40;;
1414;SDS011;702;49.466;11.086;2023-08-06T14:39:42;0.70;;;0.60;;
1414;SDS011;702;49.466;11.086;2023-08-06T14:42:11;0.73;;;0.60;;
1414;SDS011;702;49.466;11.086;2023-08-06T14:44:40;0.70;;;0.50;;
1414;SDS011;702;49.466;11.086;2023-08-06T14:47:07;0.40;;;0.30;;
1414;SDS011;702;49.466;11.086;2023-08-06T14:49:37;0.50;;;0.40;;
1414;SDS011;702;49.466;11.086;2023-08-06T14:52:06;1.30;;;0.33;;
1414;SDS011;702;49.466;11.086;2023-08-06T14:54:35;0.57;;;0.50;;
1414;SDS011;702;49.466;11.086;2023-08-06T14:57:04;1.50;;;0.40;;
1414;SDS011;702;49.466;11.086;2023-08-06T14:59:37;1.17;;;0.40;;
1414;SDS011;702;49.466;11.086;2023-08-06T15:02:06;0.80;;;0.50;;
1414;SDS011;702;49.466;11.086;2023-08-06T15:04:40;0.47;;;0.30;;
1414;SDS011;702;49.466;11.086;2023-08-06T15:07:08;0.40;;;0.37;;
1414;SDS011;702;49.466;11.086;2023-08-06T15:09:35;0.50;;;0.40;;
1414;SDS011;702;49.466;11.086;2023-08-06T15:12:04;0.90;;;0.60;;
1414;SDS011;702;49.466;11.086;2023-08-06T15:14:38;0.97;;;0.50;;
1414;SDS011;702;49.466;11.086;2023-08-06T15:17:06;0.50;;;0.50;;
1414;SDS011;702;49.466;11.086;2023-08-06T15:19:35;2.83;;;0.50;;
1414;SDS011;702;49.466;11.086;2023-08-06T15:22:04;0.60;;;0.60;;
1414;SDS011;702;49.466;11.086;2023-08-06T15:24:32;0.40;;;0.37;;
1414;SDS011;702;49.466;11.086;2023-08-06T15:27:01;0.53;;;0.53;;
1414;SDS011;702;49.466;11.086;2023-08-06T15:29:43;0.40;;;0.30;;
1414;SDS011;702;49.466;11.086;2023-08-06T15:32:11;0.70;;;0.40;;